Time;durP1;ratioP1;P1;durP2;ratioP2;P2;SDS_P1;SDS_P2;PMS_P1;PMS_P2;Temp;Humidity;BMP_temperature;BMP_pressure;BME280_temperature;BME280_humidity;BME280_pressure;Samples;Min_cycle;Max_cycle;Signal;HPM_P1;HPM_P2
2023/06/10 00:01:40;;;;;;;9.40;7.05;;;17.00;87.70;;;;;;5096577;28;20020;-66
2023/06/10 00:04:06;;;;;;;9.20;7.20;;;17.00;87.80;;;;;;5089905;28;20028;-66
2023/06/10 00:06:35;;;;;;;10.27;7.63;;;17.00;87.90;;;;;;5087636;28;20032;-66
2023/06/10 00:09:01;;;;;;;10.50;7.13;;;16.90;88.20;;;;;;5075874;28;20413;-66
2023/06/10 00:11:27;;;;;;;8.70;6.78;;;16.90;88.30;;;;;;5094217;28;20040;-66
2023/06/10 00:13:52;;;;;;;10.07;7.68;;;16.90;88.20;;;;;;5084100;28;20035;-67
2023/06/10 00:16:18;;;;;;;10.70;7.20;;;17.00;88.20;;;;;;5059537;28;20028;-66
2023/06/10 00:18:44;;;;;;;12.38;7.55;;;17.00;88.20;;;;;;5077196;28;20052;-67
2023/06/10 00:21:10;;;;;;;10.52;7.15;;;16.90;88.40;;;;;;5078031;28;20057;-66
2023/06/10 00:23:38;;;;;;;9.90;7.97;;;16.90;88.60;;;;;;5076058;28;20032;-66
2023/06/10 00:26:04;;;;;;;11.98;7.88;;;16.90;88.80;;;;;;5076914;28;20056;-68
2023/06/10 00:28:29;;;;;;;12.02;7.72;;;16.90;88.80;;;;;;5093212;28;20324;-68
2023/06/10 00:30:55;;;;;;;9.63;6.95;;;16.90;89.00;;;;;;5083527;28;20111;-67
2023/06/10 00:33:21;;;;;;;10.40;7.80;;;16.80;89.30;;;;;;5076882;28;20547;-68
2023/06/10 00:35:47;;;;;;;10.25;7.40;;;16.80;89.40;;;;;;5090378;28;20387;-68
2023/06/10 00:38:14;;;;;;;10.43;7.90;;;16.80;89.50;;;;;;5094585;28;20027;-68
2023/06/10 00:40:43;;;;;;;12.05;7.95;;;16.80;89.70;;;;;;5085237;28;20096;-68
2023/06/10 00:43:09;;;;;;;10.15;8.20;;;16.70;90.20;;;;;;5086127;28;20048;-67
2023/06/10 00:45:35;;;;;;;10.88;7.95;;;16.70;90.30;;;;;;5096511;28;20180;-68
2023/06/10 00:48:01;;;;;;;10.65;8.10;;;16.70;90.40;;;;;;5093388;28;20460;-68
2023/06/10 00:50:27;;;;;;;11.32;8.02;;;16.70;90.50;;;;;;5096264;28;20039;-66
2023/06/10 00:52:54;;;;;;;12.30;8.77;;;16.80;90.50;;;;;;5094204;28;20425;-66
2023/06/10 00:55:20;;;;;;;13.60;8.65;;;16.80;90.40;;;;;;5101281;28;20024;-66
2023/06/10 00:57:48;;;;;;;10.80;8.15;;;16.80;90.40;;;;;;5084970;28;20054;-66
2023/06/10 01:00:15;;;;;;;11.68;9.15;;;16.80;90.50;;;;;;5093608;28;20325;-66
2023/06/10 01:02:41;;;;;;;12.07;8.60;;;16.80;90.60;;;;;;5085614;28;20036;-68
2023/06/10 01:05:09;;;;;;;11.73;8.38;;;16.80;90.70;;;;;;5095327;28;20028;-68
2023/06/10 01:07:41;;;;;;;12.52;8.90;;;16.80;90.80;;;;;;5094156;28;20425;-67
2023/06/10 01:10:28;;;;;;;10.57;8.60;;;16.80;90.80;;;;;;5095628;28;20032;-68
2023/06/10 01:13:11;;;;;;;10.90;8.57;;;16.80;90.80;;;;;;5091201;28;20098;-68
2023/06/10 01:15:37;;;;;;;10.20;7.82;;;16.70;91.20;;;;;;5084485;28;20020;-67
2023/06/10 01:18:04;;;;;;;9.52;7.75;;;16.50;91.30;;;;;;5095955;28;20016;-68
2023/06/10 01:20:32;;;;;;;10.57;8.80;;;16.20;91.70;;;;;;5095587;28;20336;-68
2023/06/10 01:23:02;;;;;;;10.30;8.68;;;16.00;92.20;;;;;;5079066;28;20025;-68
2023/06/10 01:25:29;;;;;;;10.00;8.45;;;15.70;93.00;;;;;;5075994;28;20012;-68
2023/06/10 01:28:04;;;;;;;10.25;8.45;;;15.50;93.50;;;;;;5086282;28;20048;-68
2023/06/10 01:30:37;;;;;;;10.77;9.10;;;15.30;94.00;;;;;;5081542;28;20029;-68
2023/06/10 01:33:06;;;;;;;11.87;9.03;;;15.10;94.40;;;;;;5075370;28;20074;-68
2023/06/10 01:35:37;;;;;;;10.20;8.90;;;14.90;94.80;;;;;;5093948;28;20269;-68
2023/06/10 01:38:03;;;;;;;11.77;9.43;;;14.80;95.30;;;;;;5093880;28;20044;-68
2023/06/10 01:40:30;;;;;;;12.70;9.30;;;14.80;95.50;;;;;;5096105;28;20428;-68
2023/06/10 01:42:56;;;;;;;11.75;9.63;;;14.70;95.50;;;;;;5077029;28;20111;-68
2023/06/10 01:45:22;;;;;;;11.90;9.18;;;14.50;95.50;;;;;;5096002;28;20048;-68
2023/06/10 01:47:47;;;;;;;11.32;9.25;;;14.40;95.80;;;;;;5093225;28;20028;-69
2023/06/10 01:50:13;;;;;;;11.68;9.27;;;14.20;95.80;;;;;;5092537;28;20032;-68
2023/06/10 01:52:38;;;;;;;12.63;9.68;;;14.10;95.70;;;;;;5092912;28;20020;-67
2023/06/10 01:55:04;;;;;;;13.63;10.13;;;14.00;95.50;;;;;;5079147;28;20024;-68
2023/06/10 01:57:30;;;;;;;11.95;10.00;;;14.00;95.80;;;;;;5086840;28;20115;-68
2023/06/10 01:59:55;;;;;;;14.25;10.07;;;14.00;95.80;;;;;;5088533;28;20393;-68
2023/06/10 02:02:22;;;;;;;13.63;10.90;;;14.00;95.80;;;;;;5093520;28;20313;-68
2023/06/10 02:04:47;;;;;;;12.20;9.85;;;13.90;95.80;;;;;;5092349;28;20032;-67
2023/06/10 02:07:13;;;;;;;12.73;9.90;;;13.90;95.70;;;;;;5092668;28;20404;-68
2023/06/10 02:09:38;;;;;;;12.50;9.57;;;13.90;95.40;;;;;;5085185;28;20036;-67
2023/06/10 02:12:05;;;;;;;13.20;10.90;;;13.80;95.40;;;;;;5087268;28;20150;-68
2023/06/10 02:14:32;;;;;;;11.57;9.80;;;13.70;95.00;;;;;;5092224;28;20077;-68
2023/06/10 02:16:58;;;;;;;12.75;10.15;;;13.60;95.00;;;;;;5082955;28;20033;-68
2023/06/10 02:19:25;;;;;;;13.20;10.55;;;13.60;94.70;;;;;;5095538;28;20093;-67
2023/06/10 02:21:50;;;;;;;12.15;10.20;;;13.50;94.70;;;;;;5071029;28;20090;-68
2023/06/10 02:24:16;;;;;;;12.55;10.80;;;13.40;94.30;;;;;;5091689;28;20024;-68
2023/06/10 02:26:41;;;;;;;14.82;11.05;;;13.30;93.90;;;;;;5091921;28;20032;-68
2023/06/10 02:29:07;;;;;;;12.25;10.40;;;13.20;93.80;;;;;;5073607;28;20027;-68
2023/06/10 02:31:35;;;;;;;13.15;10.23;;;13.20;93.80;;;;;;5094747;28;20062;-68
2023/06/10 02:34:01;;;;;;;14.25;10.60;;;13.10;93.40;;;;;;5094878;28;20030;-68
2023/06/10 02:36:27;;;;;;;15.18;11.98;;;13.10;92.60;;;;;;5093783;28;20036;-69
2023/06/10 02:38:53;;;;;;;12.40;11.07;;;13.20;92.80;;;;;;5092706;28;20024;-68
2023/06/10 02:41:19;;;;;;;13.23;11.00;;;13.20;93.10;;;;;;5093061;28;20028;-68
2023/06/10 02:43:44;;;;;;;11.93;10.40;;;13.20;93.00;;;;;;5093613;28;20028;-68
2023/06/10 02:46:10;;;;;;;16.48;11.20;;;13.10;93.40;;;;;;5096649;28;20039;-67
2023/06/10 02:48:46;;;;;;;13.40;11.07;;;13.10;93.00;;;;;;5097508;28;20116;-67
2023/06/10 02:51:11;;;;;;;16.63;11.25;;;13.10;92.60;;;;;;5086029;28;20058;-68
2023/06/10 02:53:37;;;;;;;11.98;10.30;;;13.20;93.10;;;;;;5077449;28;20024;-67
2023/06/10 02:56:03;;;;;;;12.50;10.38;;;13.20;93.20;;;;;;5097828;28;20313;-68
2023/06/10 02:58:29;;;;;;;12.63;10.80;;;13.20;93.80;;;;;;5096519;28;20095;-68
2023/06/10 03:00:54;;;;;;;13.10;10.80;;;13.10;93.70;;;;;;5095862;28;20102;-67
2023/06/10 03:03:22;;;;;;;15.73;10.65;;;13.10;93.70;;;;;;5095503;28;20024;-68
2023/06/10 03:05:48;;;;;;;12.65;9.95;;;13.00;93.20;;;;;;5095870;28;20036;-68
2023/06/10 03:08:13;;;;;;;13.00;10.88;;;12.90;92.20;;;;;;5095313;28;20776;-68
2023/06/10 03:10:39;;;;;;;14.32;10.77;;;13.00;92.30;;;;;;5095378;28;20325;-68
2023/06/10 03:13:05;;;;;;;14.52;10.65;;;13.00;92.30;;;;;;5089681;28;20043;-68
2023/06/10 03:15:32;;;;;;;11.77;9.95;;;13.10;92.70;;;;;;5096153;28;20035;-69
2023/06/10 03:18:00;;;;;;;13.50;10.32;;;13.20;93.20;;;;;;5097021;28;20020;-68
2023/06/10 03:20:25;;;;;;;14.45;10.80;;;13.10;93.20;;;;;;5095703;28;20028;-67
2023/06/10 03:22:51;;;;;;;17.02;11.57;;;13.10;92.70;;;;;;5093595;28;20114;-68
2023/06/10 03:25:17;;;;;;;16.20;10.60;;;13.10;92.30;;;;;;5096826;28;20031;-68
2023/06/10 03:27:43;;;;;;;12.52;10.60;;;13.10;92.30;;;;;;5096783;28;20024;-68
2023/06/10 03:30:09;;;;;;;12.93;11.07;;;13.10;92.80;;;;;;5095489;28;20032;-68
2023/06/10 03:32:35;;;;;;;14.85;11.00;;;13.00;92.80;;;;;;5092240;28;20032;-67
2023/06/10 03:35:01;;;;;;;13.38;10.60;;;13.00;92.70;;;;;;5094993;28;20067;-67
2023/06/10 03:37:26;;;;;;;14.98;10.48;;;12.80;93.40;;;;;;5076892;28;20742;-68
2023/06/10 03:39:52;;;;;;;13.95;10.35;;;12.70;92.90;;;;;;5097331;28;20024;-68
2023/06/10 03:42:17;;;;;;;13.68;10.80;;;12.60;92.20;;;;;;5095800;28;20031;-68
2023/06/10 03:44:43;;;;;;;12.30;10.77;;;12.60;91.20;;;;;;5076432;28;20028;-67
2023/06/10 03:47:09;;;;;;;13.07;11.20;;;12.60;90.50;;;;;;5097135;28;20020;-66
2023/06/10 03:49:36;;;;;;;13.05;10.48;;;12.60;90.30;;;;;;5097436;28;20444;-66
2023/06/10 03:52:02;;;;;;;12.55;10.10;;;12.60;90.30;;;;;;5095170;28;20024;-66
2023/06/10 03:54:27;;;;;;;13.10;10.60;;;12.60;90.40;;;;;;5095910;28;20035;-66
2023/06/10 03:56:53;;;;;;;14.35;11.18;;;12.70;90.70;;;;;;5095661;28;20032;-67
2023/06/10 03:59:19;;;;;;;13.63;11.10;;;12.70;90.70;;;;;;5096996;28;20431;-68
2023/06/10 04:01:45;;;;;;;13.68;10.95;;;12.70;90.40;;;;;;5095934;28;20021;-66
2023/06/10 04:04:16;;;;;;;12.30;10.45;;;12.80;90.30;;;;;;5096880;28;20051;-68
2023/06/10 04:06:43;;;;;;;14.02;10.45;;;12.80;90.30;;;;;;5097539;28;20020;-67
2023/06/10 04:09:09;;;;;;;12.63;10.20;;;12.90;90.80;;;;;;5095800;28;20486;-67
2023/06/10 04:11:35;;;;;;;12.82;10.52;;;13.00;91.50;;;;;;5086335;28;20127;-68
2023/06/10 04:14:01;;;;;;;11.10;9.77;;;13.00;92.10;;;;;;5059600;28;20362;-68
2023/06/10 04:16:27;;;;;;;12.65;10.15;;;13.10;92.60;;;;;;5077034;28;20058;-68
2023/06/10 04:18:53;;;;;;;12.48;10.32;;;13.10;93.00;;;;;;5079189;28;20029;-68
2023/06/10 04:21:18;;;;;;;14.55;10.70;;;13.10;93.00;;;;;;5096617;28;20085;-67
2023/06/10 04:23:44;;;;;;;14.07;10.80;;;13.10;92.90;;;;;;5096112;28;20103;-68
2023/06/10 04:26:11;;;;;;;13.38;10.25;;;13.10;92.50;;;;;;5096472;28;20035;-67
2023/06/10 04:28:37;;;;;;;12.95;10.38;;;13.10;92.20;;;;;;5086601;28;20372;-68
2023/06/10 04:31:04;;;;;;;13.93;9.88;;;13.10;92.30;;;;;;5087688;28;20032;-67
2023/06/10 04:33:33;;;;;;;14.00;10.25;;;13.20;92.60;;;;;;5096074;28;20363;-67
2023/06/10 04:35:58;;;;;;;12.30;9.80;;;13.20;92.80;;;;;;5094777;28;20028;-68
2023/06/10 04:38:24;;;;;;;13.38;10.15;;;13.20;92.70;;;;;;5086650;28;20028;-69
2023/06/10 04:40:49;;;;;;;11.68;9.65;;;13.30;92.50;;;;;;5085106;28;20416;-67
2023/06/10 04:43:15;;;;;;;11.68;9.07;;;13.30;92.30;;;;;;5093133;28;20650;-67
2023/06/10 04:45:44;;;;;;;12.00;9.85;;;13.30;92.50;;;;;;5094928;28;20024;-68
2023/06/10 04:48:10;;;;;;;12.52;9.52;;;13.40;92.50;;;;;;5088809;28;20028;-68
2023/06/10 04:50:36;;;;;;;12.35;10.13;;;13.50;92.50;;;;;;5094004;28;20023;-68
2023/06/10 04:53:02;;;;;;;12.18;9.25;;;13.50;92.40;;;;;;5078471;28;20016;-67
2023/06/10 04:55:28;;;;;;;11.63;9.48;;;13.60;92.30;;;;;;5091758;28;20046;-68
2023/06/10 04:57:53;;;;;;;20.02;10.15;;;13.60;92.30;;;;;;5092465;28;20034;-68
2023/06/10 05:00:19;;;;;;;11.10;9.30;;;13.70;92.30;;;;;;5096534;28;20437;-68
2023/06/10 05:02:45;;;;;;;9.93;8.40;;;13.70;92.40;;;;;;5093203;28;20420;-68
2023/06/10 05:05:10;;;;;;;12.25;8.57;;;13.80;93.00;;;;;;5075374;28;20020;-68
2023/06/10 05:07:36;;;;;;;10.57;8.90;;;13.90;93.00;;;;;;5084205;28;20432;-67
2023/06/10 05:10:03;;;;;;;10.70;8.82;;;14.10;93.20;;;;;;5093795;28;20105;-68
2023/06/10 05:12:28;;;;;;;12.52;9.57;;;14.20;93.60;;;;;;5093099;28;20032;-68
2023/06/10 05:14:54;;;;;;;11.02;8.75;;;14.30;93.70;;;;;;5094008;28;20046;-68
2023/06/10 05:17:20;;;;;;;9.80;8.57;;;14.40;93.90;;;;;;5092010;28;20162;-68
2023/06/10 05:19:47;;;;;;;12.52;9.00;;;14.50;94.80;;;;;;5093807;28;20099;-68
2023/06/10 05:22:13;;;;;;;9.60;8.30;;;14.60;95.70;;;;;;5091568;28;20055;-68
2023/06/10 05:24:39;;;;;;;10.77;8.82;;;14.80;96.10;;;;;;5090797;28;20047;-67
2023/06/10 05:27:06;;;;;;;9.75;8.68;;;15.00;96.50;;;;;;5094613;28;20020;-67
2023/06/10 05:29:32;;;;;;;11.23;8.60;;;15.10;97.20;;;;;;5093501;28;20027;-68
2023/06/10 05:32:00;;;;;;;11.20;8.55;;;15.30;97.30;;;;;;5094763;28;20325;-68
2023/06/10 05:34:25;;;;;;;10.18;8.20;;;15.50;97.40;;;;;;5093188;28;20508;-68
2023/06/10 05:36:51;;;;;;;9.75;8.00;;;15.60;97.00;;;;;;5082807;28;20127;-68
2023/06/10 05:39:17;;;;;;;9.70;7.95;;;15.90;97.20;;;;;;5084755;28;20028;-68
2023/06/10 05:41:42;;;;;;;11.02;8.00;;;16.00;97.10;;;;;;5093373;28;20405;-67
2023/06/10 05:44:08;;;;;;;10.98;9.05;;;16.20;96.90;;;;;;5082460;28;20442;-68
2023/06/10 05:46:33;;;;;;;10.68;8.82;;;16.40;96.80;;;;;;5094851;28;20317;-68
2023/06/10 05:48:59;;;;;;;11.07;8.52;;;16.40;96.60;;;;;;5094962;28;20051;-68
2023/06/10 05:51:25;;;;;;;11.75;8.38;;;16.50;96.30;;;;;;5085708;28;20032;-68
2023/06/10 05:53:50;;;;;;;10.80;8.68;;;16.70;96.20;;;;;;5084026;28;20032;-68
2023/06/10 05:56:16;;;;;;;11.25;8.27;;;17.00;95.80;;;;;;5092993;28;20046;-67
2023/06/10 05:58:44;;;;;;;10.00;7.95;;;17.20;95.80;;;;;;5086198;28;20420;-68
2023/06/10 06:01:10;;;;;;;10.48;8.18;;;17.20;94.90;;;;;;5091249;28;20049;-68
2023/06/10 06:03:35;;;;;;;13.00;8.27;;;17.30;95.10;;;;;;5090821;28;20020;-67
2023/06/10 06:06:02;;;;;;;10.48;8.40;;;17.30;95.00;;;;;;5087201;28;20085;-68
2023/06/10 06:08:28;;;;;;;10.70;7.72;;;17.50;94.90;;;;;;5086298;28;20028;-68
2023/06/10 06:10:53;;;;;;;10.23;8.18;;;17.60;94.90;;;;;;5091170;28;20039;-68
2023/06/10 06:13:19;;;;;;;9.55;8.20;;;17.80;94.20;;;;;;5086877;28;20031;-68
2023/06/10 06:15:47;;;;;;;10.13;8.15;;;17.90;93.50;;;;;;5094737;28;20078;-67
2023/06/10 06:18:13;;;;;;;8.98;7.88;;;18.20;93.40;;;;;;5087782;28;20040;-67
2023/06/10 06:20:38;;;;;;;10.18;8.32;;;18.30;92.90;;;;;;5090555;28;20449;-68
2023/06/10 06:23:04;;;;;;;10.10;8.57;;;18.30;93.20;;;;;;5089678;28;20020;-68
2023/06/10 06:25:29;;;;;;;11.23;7.93;;;18.30;92.90;;;;;;5091356;28;20298;-68
2023/06/10 06:27:55;;;;;;;11.60;7.97;;;18.30;93.20;;;;;;5094459;28;20450;-68
2023/06/10 06:30:20;;;;;;;12.50;8.30;;;18.50;92.80;;;;;;5097275;28;20055;-68
2023/06/10 06:32:46;;;;;;;10.18;9.07;;;18.70;92.80;;;;;;5094543;28;20035;-67
2023/06/10 06:35:12;;;;;;;10.60;8.90;;;18.80;91.90;;;;;;5096644;28;20089;-67
2023/06/10 06:37:37;;;;;;;13.18;8.52;;;18.70;92.10;;;;;;5083882;28;20048;-67
2023/06/10 06:40:03;;;;;;;11.38;9.20;;;18.70;92.30;;;;;;5096461;28;20055;-67
2023/06/10 06:42:29;;;;;;;12.13;8.15;;;19.00;90.90;;;;;;5097594;28;20032;-67
2023/06/10 06:44:58;;;;;;;13.07;8.48;;;19.30;90.80;;;;;;5097134;28;20024;-67
2023/06/10 06:47:23;;;;;;;10.93;8.27;;;19.50;89.90;;;;;;5095621;28;20024;-67
2023/06/10 06:49:49;;;;;;;10.63;8.30;;;19.70;89.60;;;;;;5097542;28;20143;-67
2023/06/10 06:52:19;;;;;;;13.25;8.82;;;19.90;89.20;;;;;;5104461;28;20024;-68
2023/06/10 06:54:44;;;;;;;11.23;7.82;;;20.10;88.30;;;;;;5095369;28;20024;-70
2023/06/10 06:57:10;;;;;;;11.95;8.73;;;20.10;89.20;;;;;;5095948;28;20094;-67
2023/06/10 06:59:36;;;;;;;11.23;8.43;;;20.00;89.10;;;;;;5095166;28;20016;-68
2023/06/10 07:02:03;;;;;;;12.27;8.30;;;20.00;88.80;;;;;;5088358;28;20059;-67
2023/06/10 07:04:29;;;;;;;12.20;8.38;;;20.00;89.10;;;;;;5090155;28;20031;-68
2023/06/10 07:06:54;;;;;;;13.93;8.75;;;20.20;88.80;;;;;;5096308;28;20024;-67
2023/06/10 07:09:21;;;;;;;11.48;8.40;;;20.20;88.90;;;;;;5088660;28;20032;-66
2023/06/10 07:11:47;;;;;;;10.75;8.50;;;20.00;89.60;;;;;;5087570;28;20081;-68
2023/06/10 07:14:12;;;;;;;20.35;9.85;;;20.00;89.50;;;;;;5088226;28;20040;-66
2023/06/10 07:16:38;;;;;;;10.05;8.68;;;20.00;89.70;;;;;;5087470;28;20037;-67
2023/06/10 07:19:04;;;;;;;12.18;10.00;;;20.00;89.50;;;;;;5093709;28;20322;-67
2023/06/10 07:21:30;;;;;;;11.82;8.50;;;20.10;89.70;;;;;;5088799;28;20315;-67
2023/06/10 07:23:55;;;;;;;12.07;8.75;;;20.50;89.00;;;;;;5086654;28;20030;-72
2023/06/10 07:26:23;;;;;;;10.45;8.15;;;21.40;87.10;;;;;;5096185;28;20028;-70
2023/06/10 07:28:49;;;;;;;11.10;9.20;;;21.60;85.70;;;;;;5085713;28;20085;-68
2023/06/10 07:31:14;;;;;;;10.63;8.80;;;22.10;84.60;;;;;;5093819;28;20040;-68
2023/06/10 07:33:40;;;;;;;9.80;8.20;;;22.80;83.00;;;;;;5093500;28;20056;-69
2023/06/10 07:36:06;;;;;;;12.55;8.60;;;23.40;80.50;;;;;;5085255;28;20379;-68
2023/06/10 07:38:32;;;;;;;11.15;8.63;;;23.40;81.00;;;;;;5094765;28;20028;-68
2023/06/10 07:40:57;;;;;;;12.68;8.10;;;23.50;80.40;;;;;;5096998;28;20099;-67
2023/06/10 07:43:24;;;;;;;12.60;8.50;;;24.00;78.60;;;;;;5094801;28;20146;-68
2023/06/10 07:45:50;;;;;;;12.65;8.40;;;24.20;78.00;;;;;;5090926;28;20020;-68
2023/06/10 07:48:16;;;;;;;11.27;7.63;;;23.90;78.70;;;;;;5096096;28;20027;-69
2023/06/10 07:50:45;;;;;;;13.65;9.20;;;24.50;78.00;;;;;;5092365;28;20321;-69
2023/06/10 07:53:10;;;;;;;10.52;8.73;;;25.00;76.30;;;;;;5083374;28;20028;-69
2023/06/10 07:55:36;;;;;;;9.77;8.18;;;24.90;75.20;;;;;;5075284;28;20024;-68
2023/06/10 07:58:02;;;;;;;11.80;8.95;;;24.00;77.50;;;;;;5094201;28;20123;-68
2023/06/10 08:00:27;;;;;;;10.52;8.60;;;23.80;79.20;;;;;;5093269;28;20375;-68
2023/06/10 08:02:53;;;;;;;9.82;7.55;;;24.40;77.10;;;;;;5085382;28;20039;-68
2023/06/10 08:05:18;;;;;;;9.13;7.80;;;24.60;77.00;;;;;;5094587;28;20114;-68
2023/06/10 08:07:44;;;;;;;10.10;7.65;;;24.70;76.20;;;;;;5084493;28;20055;-68
2023/06/10 08:10:10;;;;;;;10.68;9.00;;;25.10;74.70;;;;;;5095803;28;20363;-68
2023/06/10 08:12:36;;;;;;;11.02;8.32;;;25.10;75.20;;;;;;5095311;28;20124;-69
2023/06/10 08:15:03;;;;;;;10.30;7.57;;;25.40;75.10;;;;;;5095188;28;20030;-69
2023/06/10 08:17:30;;;;;;;13.57;7.78;;;26.10;73.10;;;;;;5096171;28;20298;-69
2023/06/10 08:19:56;;;;;;;9.43;7.55;;;26.30;72.30;;;;;;5088892;28;20020;-69
2023/06/10 08:22:21;;;;;;;9.30;7.10;;;26.50;72.70;;;;;;5089433;28;20436;-68
2023/06/10 08:24:47;;;;;;;8.85;7.25;;;27.00;70.60;;;;;;5093978;28;20028;-68
2023/06/10 08:27:12;;;;;;;9.02;7.03;;;27.10;70.20;;;;;;5080635;28;20028;-69
2023/06/10 08:29:40;;;;;;;10.05;6.80;;;26.80;69.60;;;;;;5083318;28;20032;-69
2023/06/10 08:32:09;;;;;;;11.02;7.10;;;26.50;71.00;;;;;;5081448;28;20051;-69
2023/06/10 08:34:37;;;;;;;9.02;7.03;;;25.80;72.50;;;;;;5083291;28;20019;-68
2023/06/10 08:37:03;;;;;;;9.40;7.05;;;25.60;73.50;;;;;;5083079;28;20098;-69
2023/06/10 08:39:32;;;;;;;8.05;5.70;;;26.20;71.80;;;;;;5093820;28;20050;-69
2023/06/10 08:42:07;;;;;;;7.88;5.28;;;26.90;71.60;;;;;;5096877;28;20052;-69
2023/06/10 08:44:37;;;;;;;9.63;6.15;;;27.80;68.20;;;;;;5096937;28;20360;-68
2023/06/10 08:47:08;;;;;;;9.07;6.18;;;28.10;67.40;;;;;;5095000;28;20124;-69
2023/06/10 08:49:38;;;;;;;7.40;6.10;;;27.90;68.50;;;;;;5080661;28;20033;-69
2023/06/10 08:52:06;;;;;;;10.10;6.90;;;27.60;67.60;;;;;;5082495;28;20370;-69
2023/06/10 08:54:37;;;;;;;11.50;6.45;;;27.80;68.00;;;;;;5090236;28;20111;-68
2023/06/10 08:57:08;;;;;;;7.90;5.93;;;27.70;68.50;;;;;;5088366;28;20020;-69
2023/06/10 08:59:33;;;;;;;8.35;6.35;;;28.10;68.30;;;;;;5096645;28;20077;-69
2023/06/10 09:02:00;;;;;;;8.13;5.68;;;28.00;67.20;;;;;;5077156;28;20024;-69
2023/06/10 09:04:27;;;;;;;7.78;5.60;;;28.40;66.20;;;;;;5076301;28;20016;-69
2023/06/10 09:06:53;;;;;;;8.07;5.80;;;28.00;67.20;;;;;;5079370;28;20178;-69
2023/06/10 09:09:22;;;;;;;8.52;5.88;;;27.30;68.20;;;;;;5093987;28;20302;-69
2023/06/10 09:11:48;;;;;;;8.77;5.85;;;27.30;68.80;;;;;;5094412;28;20024;-69
2023/06/10 09:14:14;;;;;;;8.25;5.88;;;27.10;69.30;;;;;;5096572;28;20111;-69
2023/06/10 09:16:41;;;;;;;10.02;6.22;;;27.30;68.70;;;;;;5096380;28;20104;-69
2023/06/10 09:19:10;;;;;;;8.82;6.18;;;27.30;69.50;;;;;;5096362;28;20103;-69
2023/06/10 09:21:35;;;;;;;8.10;6.32;;;27.70;68.90;;;;;;5096503;28;20031;-69
2023/06/10 09:24:01;;;;;;;10.13;5.53;;;27.80;68.00;;;;;;5094121;28;20016;-68
2023/06/10 09:26:30;;;;;;;9.02;5.60;;;28.10;67.20;;;;;;5094706;28;20043;-68
2023/06/10 09:29:09;;;;;;;6.57;5.05;;;28.60;65.30;;;;;;5076092;28;20107;-68
2023/06/10 09:31:36;;;;;;;8.60;5.90;;;27.60;67.70;;;;;;5085780;28;20077;-69
2023/06/10 09:34:09;;;;;;;9.05;5.13;;;28.00;67.40;;;;;;5096072;28;20312;-69
2023/06/10 09:36:36;;;;;;;4.60;3.10;;;29.40;65.70;;;;;;5095885;28;20048;-67
2023/06/10 09:39:05;;;;;;;4.80;3.10;;;30.90;58.90;;;;;;5094013;28;20486;-67
2023/06/10 09:41:40;;;;;;;4.45;2.78;;;32.00;55.00;;;;;;5091303;28;20032;-67
2023/06/10 09:44:16;;;;;;;5.88;3.17;;;32.30;56.80;;;;;;5089271;28;20028;-68
2023/06/10 09:46:44;;;;;;;4.47;2.72;;;33.00;56.00;;;;;;5089720;28;20471;-69
2023/06/10 09:49:11;;;;;;;6.07;2.58;;;33.80;53.30;;;;;;5090435;28;20437;-69
2023/06/10 09:51:36;;;;;;;4.63;2.97;;;34.10;52.60;;;;;;5075724;28;20317;-69
2023/06/10 09:54:03;;;;;;;5.22;2.78;;;34.40;51.50;;;;;;5089481;28;20034;-69
2023/06/10 09:56:36;;;;;;;3.75;2.33;;;33.40;51.50;;;;;;5095928;28;20486;-69
2023/06/10 09:59:06;;;;;;;6.03;2.93;;;32.20;53.90;;;;;;5084103;28;20075;-69
2023/06/10 10:01:33;;;;;;;4.07;2.65;;;32.30;54.10;;;;;;5083183;28;20024;-69
2023/06/10 10:03:59;;;;;;;4.25;2.60;;;31.50;54.80;;;;;;5097473;28;20020;-69
2023/06/10 10:06:25;;;;;;;5.55;2.85;;;31.20;54.70;;;;;;5090061;28;20039;-69
2023/06/10 10:08:51;;;;;;;4.45;2.78;;;31.40;56.70;;;;;;5098553;28;20344;-69
2023/06/10 10:11:22;;;;;;;5.10;2.80;;;31.90;55.50;;;;;;5094155;28;20035;-68
2023/06/10 10:13:49;;;;;;;4.07;2.33;;;31.90;54.90;;;;;;5092658;28;20032;-69
2023/06/10 10:16:21;;;;;;;5.18;2.47;;;32.10;53.70;;;;;;5089658;28;20024;-69
2023/06/10 10:18:58;;;;;;;6.10;2.58;;;32.40;54.00;;;;;;5099165;28;20036;-69
2023/06/10 10:21:29;;;;;;;4.38;2.70;;;32.50;53.10;;;;;;5102539;28;20024;-68
2023/06/10 10:24:17;;;;;;;5.85;3.05;;;32.30;53.60;;;;;;5094539;28;20028;-69
2023/06/10 10:26:45;;;;;;;4.28;2.75;;;31.50;54.80;;;;;;5098789;28;20043;-68
2023/06/10 10:29:24;;;;;;;5.32;2.65;;;30.40;56.70;;;;;;5086844;28;20117;-69
2023/06/10 10:31:53;;;;;;;5.15;2.38;;;30.60;57.10;;;;;;5093365;28;20032;-68
2023/06/10 10:34:56;;;;;;;4.35;2.63;;;31.10;56.80;;;;;;5088708;28;20105;-68
2023/06/10 10:37:22;;;;;;;6.15;2.55;;;32.30;55.70;;;;;;5092819;28;20109;-68
2023/06/10 10:39:48;;;;;;;4.15;2.60;;;32.80;52.90;;;;;;5100502;28;20490;-66
2023/06/10 10:42:16;;;;;;;4.47;2.55;;;32.00;53.30;;;;;;5086481;28;20062;-68
2023/06/10 10:44:43;;;;;;;4.70;2.60;;;32.50;54.80;;;;;;5099215;28;20031;-69
2023/06/10 10:47:10;;;;;;;4.63;2.47;;;32.40;53.10;;;;;;5102266;28;20090;-69
2023/06/10 10:49:37;;;;;;;5.85;2.55;;;32.30;53.40;;;;;;5089185;28;20033;-68
2023/06/10 10:52:05;;;;;;;5.47;2.65;;;32.20;54.60;;;;;;5081872;28;20078;-68
2023/06/10 10:54:35;;;;;;;5.13;3.20;;;32.80;52.90;;;;;;5080975;28;20425;-68
2023/06/10 10:57:28;;;;;;;4.97;3.03;;;32.60;53.30;;;;;;5098383;28;20032;-68
2023/06/10 10:59:56;;;;;;;6.00;3.30;;;30.50;56.00;;;;;;5089865;28;20046;-67
2023/06/10 11:02:45;;;;;;;5.03;3.30;;;28.50;59.70;;;;;;5101394;28;20035;-67
2023/06/10 11:05:15;;;;;;;7.15;3.13;;;28.90;60.20;;;;;;5090110;28;20016;-68
2023/06/10 11:07:51;;;;;;;5.93;3.08;;;30.60;58.20;;;;;;5092493;28;20437;-69
2023/06/10 11:10:17;;;;;;;4.93;3.20;;;31.90;56.90;;;;;;5094430;28;20036;-68
2023/06/10 11:12:45;;;;;;;6.68;3.00;;;32.60;55.50;;;;;;5096255;28;20035;-68
2023/06/10 11:15:22;;;;;;;8.35;3.28;;;32.50;53.80;;;;;;5095377;28;20317;-68
2023/06/10 11:18:22;;;;;;;5.40;3.30;;;31.00;55.20;;;;;;5096186;28;20367;-68
2023/06/10 11:20:51;;;;;;;7.55;4.00;;;30.70;56.50;;;;;;5098455;28;20024;-68
2023/06/10 11:23:39;;;;;;;6.30;4.10;;;30.20;58.60;;;;;;5093898;28;20328;-68
2023/06/10 11:26:31;;;;;;;4.82;3.42;;;29.90;58.30;;;;;;5094428;28;20020;-68
2023/06/10 11:28:57;;;;;;;5.88;3.63;;;29.10;58.60;;;;;;5096214;28;20024;-69
2023/06/10 11:31:31;;;;;;;6.13;3.92;;;29.20;59.80;;;;;;5091016;28;20082;-68
2023/06/10 11:34:05;;;;;;;7.15;4.72;;;29.30;60.60;;;;;;5078851;28;20404;-69
2023/06/10 11:36:31;;;;;;;7.82;3.90;;;29.30;59.80;;;;;;5077626;28;20049;-69
2023/06/10 11:38:59;;;;;;;5.18;3.40;;;28.30;61.90;;;;;;5076947;28;20036;-68
2023/06/10 11:41:26;;;;;;;5.75;3.80;;;28.00;62.90;;;;;;5077996;28;20082;-69
2023/06/10 11:43:55;;;;;;;5.93;3.90;;;27.80;63.00;;;;;;5090775;28;20027;-69
2023/06/10 11:46:21;;;;;;;5.53;3.90;;;28.60;62.60;;;;;;5098228;28;20435;-69
2023/06/10 11:48:58;;;;;;;4.55;3.45;;;29.50;59.20;;;;;;5098029;28;20035;-69
2023/06/10 11:51:28;;;;;;;5.57;3.80;;;29.80;59.50;;;;;;5085636;28;20329;-68
2023/06/10 11:53:55;;;;;;;5.32;3.88;;;30.30;58.30;;;;;;5076620;28;20074;-69
2023/06/10 11:56:21;;;;;;;6.35;4.03;;;30.20;59.20;;;;;;5091223;28;20090;-69
2023/06/10 11:59:05;;;;;;;5.30;3.90;;;30.00;59.20;;;;;;5093818;28;20016;-69
2023/06/10 12:01:33;;;;;;;5.85;3.60;;;29.60;59.00;;;;;;5085926;28;20427;-69
2023/06/10 12:04:09;;;;;;;5.47;3.80;;;29.50;59.60;;;;;;5085469;28;20027;-68
2023/06/10 12:06:53;;;;;;;7.80;4.30;;;28.50;60.90;;;;;;5103459;28;20023;-68
2023/06/10 12:09:27;;;;;;;5.80;3.92;;;27.70;63.30;;;;;;5091103;28;20105;-69
2023/06/10 12:11:59;;;;;;;6.72;4.63;;;27.40;63.70;;;;;;5089771;28;20371;-70
2023/06/10 12:14:58;;;;;;;7.35;3.95;;;27.30;63.70;;;;;;5077136;28;20089;-69
2023/06/10 12:17:33;;;;;;;5.88;4.25;;;27.30;64.50;;;;;;5086704;28;20060;-69
2023/06/10 12:20:05;;;;;;;7.25;4.05;;;27.30;64.10;;;;;;5089661;28;20103;-69
2023/06/10 12:22:41;;;;;;;7.28;4.45;;;27.40;63.60;;;;;;5086837;28;20092;-69
2023/06/10 12:25:07;;;;;;;7.00;4.38;;;27.70;63.10;;;;;;5094421;28;20035;-70
2023/06/10 12:27:34;;;;;;;7.85;4.38;;;27.80;62.80;;;;;;5092651;28;20020;-69
2023/06/10 12:30:04;;;;;;;6.85;4.18;;;27.40;62.40;;;;;;5076935;28;20379;-68
2023/06/10 12:33:01;;;;;;;6.20;4.18;;;27.20;62.80;;;;;;5093039;28;20357;-68
2023/06/10 12:35:28;;;;;;;5.47;4.00;;;27.30;64.10;;;;;;5094809;28;20177;-68
2023/06/10 12:38:00;;;;;;;6.13;4.00;;;28.30;64.60;;;;;;5092721;28;20039;-67
2023/06/10 12:40:31;;;;;;;6.88;3.97;;;30.00;60.30;;;;;;5096528;28;20016;-67
2023/06/10 12:42:57;;;;;;;6.30;3.80;;;31.40;57.50;;;;;;5091727;28;20121;-69